createdAt,value
2018-01-19T00:02:23.849Z,19.74
2018-01-19T00:04:52.622Z,19.76
2018-01-19T00:07:20.074Z,19.74
2018-01-19T00:09:48.767Z,19.82
2018-01-19T00:12:16.154Z,19.76
2018-01-19T00:14:43.632Z,19.69
2018-01-19T00:17:11.491Z,19.71
2018-01-19T00:19:39.405Z,19.70
2018-01-19T00:22:06.835Z,19.63
2018-01-19T00:24:34.213Z,19.61
2018-01-19T00:27:03.859Z,19.69
2018-01-19T00:29:31.488Z,19.65
2018-01-19T00:31:58.851Z,19.66
2018-01-19T00:34:26.882Z,19.66
2018-01-19T00:36:57.307Z,19.59
2018-01-19T00:39:25.162Z,19.55
2018-01-19T00:41:52.830Z,19.53
2018-01-19T00:44:20.238Z,19.60
2018-01-19T00:46:47.655Z,19.60
2018-01-19T00:49:14.999Z,19.57
2018-01-19T00:51:43.174Z,19.57
2018-01-19T00:54:11.430Z,19.61
2018-01-19T00:56:40.762Z,19.60
2018-01-19T00:59:08.156Z,19.49
2018-01-19T01:01:36.642Z,19.47
2018-01-19T01:04:04.073Z,19.49
2018-01-19T01:06:31.437Z,19.51
2018-01-19T01:08:58.933Z,19.52
2018-01-19T01:11:26.393Z,19.45
2018-01-19T01:13:53.875Z,19.49
2018-01-19T01:16:21.278Z,19.50
2018-01-19T01:18:48.636Z,19.52
2018-01-19T01:21:17.502Z,19.43
2018-01-19T01:23:44.864Z,19.46
2018-01-19T01:26:12.338Z,19.42
2018-01-19T01:28:39.678Z,19.45
2018-01-19T01:31:07.180Z,19.43
2018-01-19T01:33:34.948Z,19.44
2018-01-19T01:36:02.366Z,19.45
2018-01-19T01:38:29.803Z,19.40
2018-01-19T01:40:57.167Z,19.36
2018-01-19T01:43:24.578Z,19.35
2018-01-19T01:45:51.923Z,19.36
2018-01-19T01:48:19.271Z,19.32
2018-01-19T01:50:46.758Z,19.35
2018-01-19T01:53:14.154Z,19.34
2018-01-19T01:55:41.695Z,19.35
2018-01-19T01:58:09.170Z,19.35
2018-01-19T02:00:36.542Z,19.31
2018-01-19T02:03:04.411Z,19.32
2018-01-19T02:05:32.347Z,19.16
2018-01-19T02:07:59.937Z,19.06
2018-01-19T02:10:27.418Z,19.02
2018-01-19T02:12:54.915Z,18.90
2018-01-19T02:15:22.343Z,18.88
2018-01-19T02:17:49.728Z,18.77
2018-01-19T02:20:17.309Z,18.86
2018-01-19T02:22:44.714Z,18.90
2018-01-19T02:25:12.083Z,18.90
2018-01-19T02:27:39.453Z,18.95
2018-01-19T02:30:06.810Z,18.91
2018-01-19T02:32:34.378Z,18.94
2018-01-19T02:35:01.753Z,19.04
2018-01-19T02:37:29.238Z,19.02
2018-01-19T02:39:56.630Z,18.99
2018-01-19T02:42:23.982Z,19.01
2018-01-19T02:44:51.362Z,19.03
2018-01-19T02:47:19.043Z,19.04
2018-01-19T02:49:46.702Z,19.00
2018-01-19T02:52:14.156Z,19.05
2018-01-19T02:54:42.145Z,19.04
2018-01-19T02:57:09.710Z,19.22
2018-01-19T02:59:37.058Z,19.08
2018-01-19T03:02:04.410Z,19.14
2018-01-19T03:04:31.799Z,19.12
2018-01-19T03:06:59.430Z,19.10
2018-01-19T03:09:26.839Z,19.16
2018-01-19T03:11:54.213Z,19.19
2018-01-19T03:14:21.688Z,19.05
2018-01-19T03:16:49.095Z,19.18
2018-01-19T03:19:16.475Z,19.25
2018-01-19T03:21:44.572Z,19.21
2018-01-19T03:24:12.161Z,19.10
2018-01-19T03:26:39.522Z,19.22
2018-01-19T03:29:06.873Z,19.22
2018-01-19T03:31:34.283Z,19.26
2018-01-19T03:34:01.658Z,19.25
2018-01-19T03:36:29.223Z,19.21
2018-01-19T03:38:56.608Z,19.19
2018-01-19T03:41:24.027Z,19.25
2018-01-19T03:43:51.531Z,19.31
2018-01-19T03:46:19.048Z,19.28
2018-01-19T03:48:46.445Z,19.30
2018-01-19T03:51:14.027Z,19.23
2018-01-19T03:53:41.494Z,19.24
2018-01-19T03:56:08.928Z,19.39
2018-01-19T03:58:36.342Z,19.28
2018-01-19T04:01:03.726Z,19.27
2018-01-19T04:03:31.152Z,19.24
2018-01-19T04:05:58.602Z,19.19
2018-01-19T04:08:25.959Z,19.24
2018-01-19T04:10:53.486Z,19.29
2018-01-19T04:13:20.865Z,19.22
2018-01-19T04:15:48.290Z,19.40
2018-01-19T04:18:15.654Z,19.36
2018-01-19T04:20:43.243Z,19.55
2018-01-19T04:23:10.651Z,19.62
2018-01-19T04:25:38.017Z,19.64
2018-01-19T04:28:05.934Z,19.65
2018-01-19T04:30:33.294Z,19.71
2018-01-19T04:33:00.670Z,19.84
2018-01-19T04:35:28.047Z,19.83
2018-01-19T04:37:55.534Z,19.79
2018-01-19T04:40:23.055Z,19.80
2018-01-19T04:42:50.462Z,19.92
2018-01-19T04:45:18.066Z,19.81
2018-01-19T04:47:45.625Z,19.90
2018-01-19T04:50:13.067Z,20.03
2018-01-19T04:52:40.477Z,19.89
2018-01-19T04:55:07.987Z,19.86
2018-01-19T04:57:35.365Z,19.92
2018-01-19T05:00:02.967Z,19.93
2018-01-19T05:02:30.402Z,20.00
2018-01-19T05:04:57.795Z,19.90
2018-01-19T05:07:25.278Z,19.97
2018-01-19T05:09:53.133Z,19.80
2018-01-19T05:12:20.512Z,20.07
2018-01-19T05:14:47.920Z,20.15
2018-01-19T05:17:15.332Z,20.12
2018-01-19T05:19:42.796Z,20.07
2018-01-19T05:22:10.262Z,20.05
2018-01-19T05:24:38.062Z,20.19
2018-01-19T05:27:05.430Z,20.12
2018-01-19T05:29:33.538Z,20.12
2018-01-19T05:32:00.922Z,20.18
2018-01-19T05:34:28.443Z,20.25
2018-01-19T05:36:55.889Z,20.15
2018-01-19T05:39:23.342Z,20.25
2018-01-19T05:41:50.783Z,20.15
2018-01-19T05:44:18.562Z,20.22
2018-01-19T05:46:54.730Z,20.31
2018-01-19T05:49:22.193Z,20.30
2018-01-19T05:51:49.673Z,20.41
2018-01-19T05:54:17.055Z,20.20
2018-01-19T05:56:44.462Z,20.32
2018-01-19T05:59:11.932Z,20.31
2018-01-19T06:01:39.396Z,20.40
2018-01-19T06:04:06.772Z,20.50
2018-01-19T06:06:34.300Z,20.30
2018-01-19T06:09:01.782Z,20.45
2018-01-19T06:11:29.210Z,20.43
2018-01-19T06:13:56.594Z,20.47
2018-01-19T06:16:24.016Z,20.56
2018-01-19T06:18:51.490Z,20.44
2018-01-19T06:21:18.890Z,20.48
2018-01-19T06:23:46.317Z,20.65
2018-01-19T06:26:13.716Z,20.63
2018-01-19T06:28:41.212Z,20.80
2018-01-19T06:31:08.685Z,20.76
2018-01-19T06:33:36.148Z,20.72
2018-01-19T06:36:03.646Z,20.67
2018-01-19T06:38:31.012Z,20.85
2018-01-19T06:40:58.399Z,20.79
2018-01-19T06:43:25.862Z,20.80
2018-01-19T06:45:53.246Z,20.84
2018-01-19T06:48:20.682Z,20.85
2018-01-19T06:50:48.073Z,20.88
2018-01-19T06:53:15.452Z,21.16
2018-01-19T06:55:42.871Z,21.03
2018-01-19T06:58:10.237Z,21.23
2018-01-19T07:00:37.741Z,21.19
2018-01-19T07:03:05.178Z,21.21
2018-01-19T07:05:32.721Z,21.37
2018-01-19T07:08:00.198Z,21.23
2018-01-19T07:10:27.654Z,21.27
2018-01-19T07:12:55.169Z,21.41
2018-01-19T07:15:22.574Z,21.41
2018-01-19T07:17:50.051Z,21.56
2018-01-19T07:20:17.453Z,21.43
2018-01-19T07:22:44.993Z,21.56
2018-01-19T07:25:13.178Z,21.52
2018-01-19T07:27:40.698Z,21.59
2018-01-19T07:30:08.280Z,21.62
2018-01-19T07:32:35.813Z,21.79
2018-01-19T07:35:05.148Z,21.82
2018-01-19T07:37:33.817Z,21.95
2018-01-19T07:40:01.897Z,21.89
2018-01-19T07:42:30.647Z,21.94
2018-01-19T07:44:59.691Z,21.82
2018-01-19T07:47:27.847Z,21.95
2018-01-19T07:49:55.638Z,22.11
2018-01-19T07:52:24.533Z,22.01
2018-01-19T07:54:54.507Z,21.99
2018-01-19T07:57:24.590Z,22.01
2018-01-19T07:59:57.400Z,22.09
2018-01-19T08:02:29.410Z,22.15
2018-01-19T08:04:58.202Z,22.12
2018-01-19T08:07:26.166Z,22.02
2018-01-19T08:10:02.221Z,22.10
2018-01-19T08:12:31.335Z,22.12
2018-01-19T08:14:58.971Z,21.99
2018-01-19T08:17:28.836Z,22.06
2018-01-19T08:19:56.520Z,22.24
2018-01-19T08:22:25.062Z,22.07
2018-01-19T08:24:52.609Z,22.32
2018-01-19T08:27:20.480Z,22.17
2018-01-19T08:29:48.769Z,22.27
2018-01-19T08:32:17.028Z,22.13
2018-01-19T08:34:46.899Z,22.30
2018-01-19T08:37:14.803Z,22.23
2018-01-19T08:39:43.464Z,22.14
2018-01-19T08:42:12.581Z,22.16
2018-01-19T08:44:40.950Z,21.97
2018-01-19T08:47:08.680Z,22.25
2018-01-19T08:49:39.627Z,22.16
2018-01-19T09:00:09.811Z,22.07
2018-01-19T09:02:38.197Z,22.30
2018-01-19T09:05:05.703Z,22.47
2018-01-19T09:07:33.495Z,22.40
2018-01-19T09:26:56.047Z,22.71
2018-01-19T09:42:55.220Z,22.82
2018-01-19T09:45:23.271Z,22.77
2018-01-19T09:47:52.197Z,22.82
2018-01-19T10:07:29.649Z,22.97
2018-01-19T10:09:57.603Z,22.71
2018-01-19T10:12:26.154Z,22.82
2018-01-19T10:14:54.182Z,22.87
2018-01-19T10:17:21.674Z,23.01
2018-01-19T10:19:49.119Z,23.06
2018-01-19T10:22:16.670Z,22.88
2018-01-19T10:24:44.104Z,22.94
2018-01-19T10:27:13.735Z,23.04
2018-01-19T10:29:48.923Z,23.05
2018-01-19T10:32:17.361Z,22.96
2018-01-19T10:50:34.385Z,23.17
2018-01-19T10:53:02.285Z,23.30
2018-01-19T10:55:30.106Z,23.14
2018-01-19T10:57:57.654Z,23.09
2018-01-19T11:00:26.282Z,23.36
2018-01-19T11:02:53.917Z,23.14
2018-01-19T11:05:21.624Z,23.29
2018-01-19T11:07:49.248Z,23.35
2018-01-19T11:10:16.735Z,23.27
2018-01-19T11:12:44.425Z,23.27
2018-01-19T11:15:12.400Z,23.41
2018-01-19T11:17:41.236Z,23.36
2018-01-19T11:20:16.601Z,23.21
2018-01-19T11:22:44.362Z,23.52
2018-01-19T11:25:12.375Z,23.50
2018-01-19T11:27:40.404Z,23.53
2018-01-19T11:41:47.369Z,23.65
2018-01-19T11:44:15.941Z,23.57
2018-01-19T11:46:45.406Z,23.47
2018-01-19T11:49:13.040Z,23.65
2018-01-19T11:51:43.043Z,23.57
2018-01-19T11:54:12.692Z,23.73
2018-01-19T11:56:40.708Z,23.64
2018-01-19T12:01:47.391Z,23.72
2018-01-19T12:04:17.595Z,23.69
2018-01-19T12:06:47.568Z,23.85
2018-01-19T12:09:15.973Z,23.79
2018-01-19T12:11:46.783Z,23.74
2018-01-19T12:22:10.599Z,23.92
2018-01-19T12:24:41.911Z,23.88
2018-01-19T12:27:11.828Z,23.78
2018-01-19T12:29:39.990Z,23.95
2018-01-19T12:32:08.377Z,23.95
2018-01-19T12:34:36.426Z,23.95
2018-01-19T12:37:06.476Z,23.98
2018-01-19T12:39:34.407Z,23.91
2018-01-19T12:42:02.414Z,23.85
2018-01-19T12:44:33.047Z,23.99
2018-01-19T12:47:03.107Z,24.04
2018-01-19T12:49:34.289Z,23.85
2018-01-19T12:52:03.296Z,24.06
2018-01-19T12:54:33.459Z,24.01
2018-01-19T12:57:03.055Z,23.99
2018-01-19T12:59:31.501Z,24.04
2018-01-19T13:01:59.486Z,23.86
2018-01-19T13:04:26.942Z,23.93
2018-01-19T13:06:54.887Z,24.05
2018-01-19T13:09:22.492Z,23.98
2018-01-19T13:11:50.327Z,24.01
2018-01-19T13:14:18.807Z,23.92
2018-01-19T13:16:47.206Z,24.06
2018-01-19T13:24:29.945Z,23.90
2018-01-19T13:27:01.479Z,24.17
2018-01-19T13:34:55.124Z,24.02
2018-01-19T13:37:27.827Z,24.00
2018-01-19T13:39:55.394Z,24.05
2018-01-19T13:42:23.664Z,23.99
2018-01-19T13:44:51.727Z,23.93
2018-01-19T13:47:20.506Z,24.02
2018-01-19T13:49:48.385Z,24.07
2018-01-19T13:52:16.066Z,23.95
2018-01-19T13:54:44.647Z,23.83
2018-01-19T13:57:12.789Z,23.98
2018-01-19T13:59:43.319Z,23.90
2018-01-19T14:02:11.031Z,23.95
2018-01-19T14:04:42.169Z,23.94
2018-01-19T14:07:10.266Z,23.85
2018-01-19T14:09:37.995Z,23.93
2018-01-19T14:12:06.949Z,23.92
2018-01-19T14:14:35.374Z,23.90
2018-01-19T14:17:03.627Z,23.82
2018-01-19T14:19:32.531Z,23.84
2018-01-19T14:22:04.330Z,23.87
2018-01-19T14:24:35.090Z,23.87
2018-01-19T14:27:03.367Z,23.78
2018-01-19T14:29:32.521Z,23.84
2018-01-19T14:32:00.382Z,23.70
2018-01-19T14:34:28.026Z,23.91
2018-01-19T14:36:55.688Z,23.72
2018-01-19T14:39:24.897Z,23.84
2018-01-19T14:41:52.697Z,23.82
2018-01-19T14:44:23.653Z,23.86
2018-01-19T14:46:51.114Z,23.79
2018-01-19T14:49:19.103Z,23.75
2018-01-19T14:51:46.761Z,23.76
2018-01-19T14:54:14.823Z,23.73
2018-01-19T14:56:42.658Z,23.59
2018-01-19T14:59:10.562Z,23.63
2018-01-19T15:01:38.639Z,23.67
2018-01-19T15:04:07.302Z,23.68
2018-01-19T15:06:35.700Z,23.62
2018-01-19T15:09:04.117Z,23.63
2018-01-19T15:11:32.346Z,23.61
2018-01-19T15:13:59.967Z,23.58
2018-01-19T15:16:27.996Z,23.55
2018-01-19T15:18:57.386Z,23.44
2018-01-19T15:21:24.863Z,23.48
2018-01-19T15:23:55.042Z,23.51
2018-01-19T15:26:23.135Z,23.48
2018-01-19T15:28:50.930Z,23.38
2018-01-19T15:31:19.234Z,23.41
2018-01-19T15:33:47.943Z,23.40
2018-01-19T15:36:16.812Z,23.40
2018-01-19T15:38:45.301Z,23.38
2018-01-19T15:41:12.744Z,23.43
2018-01-19T15:43:40.489Z,23.30
2018-01-19T15:46:08.056Z,23.30
2018-01-19T15:48:35.502Z,23.32
2018-01-19T15:51:02.994Z,23.35
2018-01-19T15:53:30.467Z,23.21
2018-01-19T15:55:57.939Z,23.31
2018-01-19T15:58:25.535Z,23.17
2018-01-19T16:00:52.926Z,23.14
2018-01-19T16:03:20.402Z,23.06
2018-01-19T16:05:47.781Z,23.12
2018-01-19T16:08:15.194Z,23.15
2018-01-19T16:10:42.610Z,23.15
2018-01-19T16:13:10.019Z,22.95
2018-01-19T16:15:37.507Z,23.14
2018-01-19T16:18:04.962Z,23.00
2018-01-19T16:20:32.396Z,23.02
2018-01-19T16:22:59.777Z,22.94
2018-01-19T16:25:27.206Z,22.92
2018-01-19T16:27:54.615Z,22.97
2018-01-19T16:30:22.112Z,22.75
2018-01-19T16:32:49.510Z,22.85
2018-01-19T16:35:16.918Z,22.78
2018-01-19T16:37:44.436Z,22.67
2018-01-19T16:40:11.831Z,22.79
2018-01-19T16:42:40.124Z,22.73
2018-01-19T16:45:08.330Z,22.74
2018-01-19T16:47:35.766Z,22.64
2018-01-19T16:50:03.177Z,22.63
2018-01-19T16:52:30.586Z,22.65
2018-01-19T16:54:57.982Z,22.72
2018-01-19T16:57:25.414Z,22.66
2018-01-19T16:59:52.825Z,22.67
2018-01-19T17:02:20.232Z,22.62
2018-01-19T17:04:47.688Z,22.65
2018-01-19T17:07:15.177Z,22.64
2018-01-19T17:09:42.558Z,22.65
2018-01-19T17:12:10.005Z,22.54
2018-01-19T17:14:37.446Z,22.57
2018-01-19T17:17:04.846Z,22.59
2018-01-19T17:19:32.231Z,22.54
2018-01-19T17:21:59.633Z,22.52
2018-01-19T17:24:27.027Z,22.44
2018-01-19T17:26:55.022Z,22.48
2018-01-19T17:29:22.664Z,22.48
2018-01-19T17:31:50.046Z,22.51
2018-01-19T17:34:17.471Z,22.45
2018-01-19T17:36:46.489Z,22.47
2018-01-19T17:39:15.416Z,22.33
2018-01-19T17:41:42.773Z,22.34
2018-01-19T17:44:10.351Z,22.30
2018-01-19T17:46:38.823Z,22.30
2018-01-19T17:49:06.186Z,22.33
2018-01-19T17:51:33.534Z,22.34
2018-01-19T17:54:00.948Z,22.30
2018-01-19T17:56:28.404Z,22.21
2018-01-19T17:58:55.779Z,22.27
2018-01-19T18:01:23.248Z,22.24
2018-01-19T18:03:50.618Z,22.25
2018-01-19T18:06:18.042Z,22.23
2018-01-19T18:08:45.406Z,22.26
2018-01-19T18:11:12.767Z,22.24
2018-01-19T18:13:40.157Z,22.20
2018-01-19T18:16:07.725Z,22.22
2018-01-19T18:18:35.104Z,22.26
2018-01-19T18:21:02.468Z,22.12
2018-01-19T18:23:29.997Z,22.23
2018-01-19T18:25:57.358Z,22.22
2018-01-19T18:28:24.948Z,22.20
2018-01-19T18:30:52.416Z,22.25
2018-01-19T18:33:19.819Z,22.19
2018-01-19T18:35:47.185Z,22.20
2018-01-19T18:38:14.577Z,22.18
2018-01-19T18:40:41.970Z,22.05
2018-01-19T18:43:09.648Z,22.09
2018-01-19T18:45:37.033Z,22.14
2018-01-19T18:48:05.336Z,22.08
2018-01-19T18:50:33.112Z,22.19
2018-01-19T18:53:00.523Z,22.17
2018-01-19T18:55:28.058Z,22.10
2018-01-19T18:57:55.664Z,22.11
2018-01-19T19:00:23.083Z,22.06
2018-01-19T19:02:50.698Z,22.10
2018-01-19T19:05:18.178Z,22.07
2018-01-19T19:07:45.553Z,22.10
2018-01-19T19:10:12.950Z,22.09
2018-01-19T19:12:40.399Z,22.08
2018-01-19T19:15:07.965Z,22.04
2018-01-19T19:17:35.655Z,22.07
2018-01-19T19:20:03.037Z,22.05
2018-01-19T19:22:30.438Z,21.97
2018-01-19T19:24:58.743Z,22.00
2018-01-19T19:27:26.152Z,22.03
2018-01-19T19:29:53.527Z,22.02
2018-01-19T19:32:21.080Z,21.94
2018-01-19T19:34:48.541Z,21.95
2018-01-19T19:37:15.981Z,21.96
2018-01-19T19:39:43.351Z,21.91
2018-01-19T19:42:10.738Z,21.93
2018-01-19T19:44:38.545Z,21.93
2018-01-19T19:47:05.900Z,21.86
2018-01-19T19:49:33.334Z,21.91
2018-01-19T19:52:00.718Z,21.92
2018-01-19T19:54:28.096Z,21.86
2018-01-19T19:56:55.519Z,21.88
2018-01-19T19:59:22.899Z,21.82
2018-01-19T20:01:50.313Z,21.88
2018-01-19T20:04:17.733Z,21.83
2018-01-19T20:06:45.103Z,21.78
2018-01-19T20:09:12.490Z,21.82
2018-01-19T20:11:39.918Z,21.82
2018-01-19T20:14:07.343Z,21.78
2018-01-19T20:16:35.180Z,21.75
2018-01-19T20:19:02.566Z,21.69
2018-01-19T20:21:29.934Z,21.69
2018-01-19T20:23:57.389Z,21.60
2018-01-19T20:26:24.885Z,21.54
2018-01-19T20:28:52.361Z,21.55
2018-01-19T20:31:20.095Z,21.51
2018-01-19T20:33:47.501Z,21.49
2018-01-19T20:36:14.921Z,21.42
2018-01-19T20:38:42.520Z,21.40
2018-01-19T20:41:09.958Z,21.33
2018-01-19T20:43:37.443Z,21.37
2018-01-19T20:46:04.946Z,21.35
2018-01-19T20:48:32.307Z,21.33
2018-01-19T20:51:00.371Z,21.31
2018-01-19T20:53:27.879Z,21.24
2018-01-19T20:55:55.319Z,21.25
2018-01-19T20:58:22.705Z,21.27
2018-01-19T21:00:50.170Z,21.21
2018-01-19T21:03:17.537Z,21.16
2018-01-19T21:05:44.936Z,21.19
2018-01-19T21:08:13.540Z,21.17
2018-01-19T21:10:41.413Z,21.11
2018-01-19T21:13:08.904Z,21.08
2018-01-19T21:15:36.306Z,21.04
2018-01-19T21:18:03.666Z,21.09
2018-01-19T21:20:31.214Z,21.08
2018-01-19T21:22:58.726Z,21.07
2018-01-19T21:25:26.103Z,21.04
2018-01-19T21:27:53.687Z,20.96
2018-01-19T21:30:21.561Z,20.99
2018-01-19T21:32:48.917Z,20.97
2018-01-19T21:35:16.296Z,20.95
2018-01-19T21:37:43.704Z,20.96
2018-01-19T21:40:11.394Z,20.92
2018-01-19T21:42:38.961Z,20.89
2018-01-19T21:45:06.411Z,20.89
2018-01-19T21:47:34.146Z,20.88
2018-01-19T21:50:01.655Z,20.88
2018-01-19T21:52:29.079Z,20.86
2018-01-19T21:54:56.673Z,20.81
2018-01-19T21:57:24.148Z,20.87
2018-01-19T21:59:51.520Z,20.86
2018-01-19T22:02:18.981Z,20.83
2018-01-19T22:04:46.383Z,20.78
2018-01-19T22:07:13.766Z,20.77
2018-01-19T22:09:41.126Z,20.70
2018-01-19T22:12:08.534Z,20.80
2018-01-19T22:14:35.955Z,20.70
2018-01-19T22:17:03.353Z,20.72
2018-01-19T22:19:30.794Z,20.73
2018-01-19T22:21:58.203Z,20.65
2018-01-19T22:24:25.618Z,20.70
2018-01-19T22:26:52.964Z,20.69
2018-01-19T22:29:20.575Z,20.35
2018-01-19T22:31:47.985Z,20.66
2018-01-19T22:34:15.394Z,20.65
2018-01-19T22:36:42.836Z,20.61
2018-01-19T22:39:10.183Z,20.60
2018-01-19T22:41:37.585Z,20.63
2018-01-19T22:44:04.973Z,20.54
2018-01-19T22:46:32.313Z,20.57
2018-01-19T22:48:59.870Z,20.56
2018-01-19T22:51:27.227Z,20.56
2018-01-19T22:53:54.632Z,20.52
2018-01-19T22:56:22.255Z,20.50
2018-01-19T22:58:49.624Z,20.57
2018-01-19T23:01:17.026Z,20.58
2018-01-19T23:03:44.426Z,20.47
2018-01-19T23:06:11.811Z,20.53
2018-01-19T23:08:39.208Z,20.44
2018-01-19T23:11:06.619Z,20.50
2018-01-19T23:13:33.986Z,20.51
2018-01-19T23:16:01.377Z,20.51
2018-01-19T23:18:28.917Z,20.39
2018-01-19T23:20:56.286Z,20.46
2018-01-19T23:23:23.763Z,20.47
2018-01-19T23:25:51.121Z,20.41
2018-01-19T23:28:18.516Z,20.40
2018-01-19T23:30:45.878Z,20.45
2018-01-19T23:33:13.271Z,20.47
2018-01-19T23:35:40.690Z,20.43
2018-01-19T23:38:08.062Z,20.36
2018-01-19T23:40:35.606Z,20.44
2018-01-19T23:43:02.977Z,20.43
2018-01-19T23:45:30.431Z,20.42
2018-01-19T23:47:57.790Z,20.44
2018-01-19T23:50:25.154Z,20.39
2018-01-19T23:52:52.575Z,20.34
2018-01-19T23:55:19.942Z,20.41
2018-01-19T23:57:47.334Z,20.43
